AirNav   Air Wisconsin pilot careers
 
 321 users online  

9OR5 Portland Adventist Medical Center Heliport
Portland, Oregon, USA

GOING TO PORTLAND?


FAA INFORMATION EFFECTIVE 03 JANUARY 2019

Location

FAA Identifier: 9OR5
Lat/Long: 45-30-46.5700N / 122-33-21.4800W
45-30.776167N / 122-33.358000W
45.5129361 / -122.5559667
(estimated)
Elevation: 322 ft. / 98 m (estimated)
Variation: 19E (1985)
From city: 5 miles E of PORTLAND, OR
Time zone: UTC -8 (UTC -7 during Daylight Saving Time)
Zip code: 97216

Heliport Operations

Heliport use: Private use, MEDICAL USE ONLY.
Activation date: 01/1980
Control tower: no
ARTCC: SEATTLE CENTER
FSS: MC MINNVILLE FLIGHT SERVICE STATION
Attendance: UNATNDD
Wind indicator: yes
Segmented circle: no

Heliport Communications

WX ASOS at PDX (5 nm N): PHONE (503) 493-7687
WX ASOS at TTD (7 nm E): 135.625 (503-492-2887)
WX ASOS at VUO (8 nm NW): 135.125 (360-696-1280)
WX ASOS at HIO (17 nm W): PHONE 503-640-2984
WX ASOS at UAO (18 nm SW): PHONE 503-678-3011

Nearby radio navigation aids

VOR radial/distance  VOR name  Freq  Var
BTGr153/14.2BATTLE GROUND VORTAC116.6021E
UBGr041/20.2NEWBERG VOR/DME117.4021E

 
NDB name  Hdg/Dist  Freq  Var  ID
BANKS093/21.735616EPND .--. -. -..

Heliport Services

Runway Information

Helipad H2

Dimensions: 45 x 45 ft. / 14 x 14 m
Surface: asphalt/concrete, in fair condition
Latitude: 45-30.768667N
Longitude: 122-33.282167W
Elevation: 322.0 ft.
Traffic pattern: leftleft
Markings: none, in fair condition

Helipad H1

Dimensions: 40 x 40 ft. / 12 x 12 m
Surface: asphalt/concrete, in fair condition
Latitude: 45-30.791167N
Longitude: 122-33.509667W
Elevation: 322.0 ft.
Traffic pattern: leftleft
Markings: none, in fair condition

Heliport Ownership and Management from official FAA records

Ownership: Privately-owned
Owner: PORTLAND ADVENTIST MED CENTER
10123 SE MARKET ST
PORTLAND, OR 97216
Phone (503) 257-2500
Manager: DWAYNE FUND
10123 SE MARKET ST
PORTLAND, OR 97216
Phone (503) 261-6065

Additional Remarks

FOR CD CTC PORTLAND APCH AT 503-493-7545.

Instrument Procedures

There are no published instrument procedures at 9OR5.

Some nearby airports with instrument procedures:

KPDX - Portland International Airport (5 nm N)
KTTD - Portland-Troutdale Airport (7 nm E)
KVUO - Pearson Field Airport (8 nm NW)
KHIO - Portland-Hillsboro Airport (17 nm W)
KUAO - Aurora State Airport (18 nm SW)
 
Loc | Ops | Rwys | IFR | FBO | Links
Com | Nav | Svcs | Stats | Notes
Area around 9OR5 (Portland Adventist Medical Center Heliport)
 
Road maps at: MapQuest Bing Google
 
Aerial photo
No photo
 
Sectional chart

 
Airport distance calculator
Flying to Portland Adventist Medical Center Heliport? Find the distance to fly.

From to 9OR5

Sunrise and sunset
Times for 23-Jan-2019
 Local
(UTC-8)
 Zulu
(UTC)
Morning civil twilight07:0915:09
Sunrise07:4215:42
Sunset17:0301:03
Evening civil twilight17:3501:35

Current date and time
Zulu (UTC)  23-Jan-2019 08:30:14
Local (UTC-8)  23-Jan-2019 00:30:14
 
METAR
KPDX 
5nm NW 
230753Z 20017G22KT 10SM SCT016 OVC042 10/08 A3022 RMK AO2 PK WND 20029/0721 RAE52 SLP232 P0002 T01000083 401000044
KTTD 
6nm E 
230808Z AUTO 22011KT 10SM -RA BKN021 OVC032 11/08 A3022 RMK AO2 P0000 T01060078
KVUO 
7nm NW 
230813Z AUTO 18008G18KT 10SM FEW015 SCT023 OVC039 09/07 A3021 RMK AO2 T00940072
KHIO 
17nm W 
230753Z AUTO 18015KT 10SM -RA FEW017 OVC039 08/07 A3020 RMK AO2 SLP227 P0002 T00830072 400830033
KUAO 
18nm SW 
230753Z AUTO 19014G23KT 9SM -RA SCT014 OVC024 09/08 A3023 RMK AO2 PK WND 20026/0709 PRESFR SLP237 P0004 T00940078 400940033
TAF
KPDX 
5nm NW 
230542Z 2306/2406 19014G24KT 6SM -RA BR BKN015 OVC035 FM230900 19014G24KT 6SM -RA OVC015 FM231400 19015KT P6SM OVC020 FM231900 23007KT P6SM OVC022
KTTD 
6nm E 
230542Z 2306/2406 19012KT 6SM -RA BKN015 OVC035 FM230900 19012KT 5SM -RA BR OVC015 FM231200 24007KT 5SM -SHRA BR OVC015 FM231700 24003KT P6SM -SHRA OVC020 FM232200 25002KT P6SM OVC025
KHIO 
17nm W 
230542Z 2306/2406 18015G24KT 6SM -RA OVC009 FM231400 19012G22KT 6SM -SHRA BR OVC015 FM232000 22010KT P6SM VCSH OVC022
KUAO 
18nm SW 
230542Z 2306/2406 19018G28KT 4SM -RA BR BKN018 OVC035 FM230900 19015G25KT 6SM -RA OVC015 FM231200 20015KT P6SM -SHRA OVC015 FM231600 20012G19KT P6SM OVC015 FM232300 21006KT P6SM OVC025
NOTAMs
Click for the latest NOTAMs
NOTAMs are issued by the DoD/FAA and will open in a separate window not controlled by AirNav.

 

 
 

Would you like to see your business listed on this page?

 If your business provides an interesting product or service to pilots, flight crews, aircraft, or users of the Portland Adventist Medical Center Heliport, you should consider listing it here.  To start the listing process, click on the button below
 
Add a business
 

Other Pages about Portland Adventist Medical Center Heliport

Update a link
 
Copyright © AirNav, LLC. All rights reserved. Privacy Policy  Contact